Okayama, Japan

4:24 PM JST on March 03, 2015 (GMT +0900)
Okayama | Change Station
CLOSE
Current Station
Airport
Location: Okayama,
Elevation: 794 ft
Nearby Weather Stations

Elev 794 ft 34.76 °N, 133.86 °E | Updated 24 minutes ago

Light Rain
Light Rain Mist Patches Fog
39 °F
Feels Like 34 °F
N
7
Wind Variable Wind from North

Today
High -- | Low -- °F
--% Chance of Precip.
Yesterday
High -- | Low -- °F
Precip. -- in
6:32 AM 6:01 PM
Waxing Gibbous, 95% visible
Pressure 29.83 in
Visibility 2.2 miles
Clouds Scattered Clouds 1000 ft
Mostly Cloudy 1500 ft
Windchill 34 °F
Dew Point 37 °F
Humidity 93%
Rainfall 0.00 in
Snow Depth Not available.
UV 1 out of 12
Pollen Not available.
Air Quality Not available.
Flu Activity Not available.
METAR RJOB 030700Z 36006KT 3500 -RA BR BCFG FEW000 SCT010 BKN015 04/03 Q1010

More Conditions Fewer Conditions

Pressure 29.83 in
Visibility 2.2 miles
Clouds Scattered Clouds 1000 ft
Mostly Cloudy 1500 ft
Windchill 34 °F
Dew Point 37 °F
Humidity 93%
Rainfall 0.00 in
Snow Depth Not available.
UV 1 out of 12
Pollen Not available.
Air Quality Not available.
Flu Activity Not available.
METAR RJOB 030700Z 36006KT 3500 -RA BR BCFG FEW000 SCT010 BKN015 04/03 Q1010

More Conditions Fewer Conditions

10-Day Weather Forecast

Almanac

Astronomy

Mar. 03, 2015 Rise Set
Actual Time
Civil Twilight
Nautical Twilight
Astronomical Twilight
Moon
Length of Visible Light
Length of Day
Tomorrow will be .
, % of the Moon is Illuminated

Today's Extremes

Country Highs Country Lows

Community

WunderPhotos

Upload Photos

1,802,073 photos uploaded!

WunderBlogs® & News

Nearby

Air Quality

  Air Quality AQ Index Pollutant
Not available.

Snow Depth

Station Depth Elevation

Earthquake Activity

City Distance Mag. Time & Date
Minimum magnitude displayed is 2.5.

Coastal Water Temperatures

Place Temperature

Nearby Weather Stations